createdAt,value
2019-06-07T00:02:20.419Z,99.90
2019-06-07T00:04:46.879Z,99.90
2019-06-07T00:07:14.984Z,99.90
2019-06-07T00:09:42.051Z,99.90
2019-06-07T00:12:09.532Z,99.90
2019-06-07T00:14:37.260Z,99.90
2019-06-07T00:17:03.735Z,99.90
2019-06-07T00:19:30.203Z,99.90
2019-06-07T00:24:25.283Z,99.90
2019-06-07T00:26:58.424Z,99.90
2019-06-07T00:29:22.014Z,99.90
2019-06-07T00:31:48.698Z,99.90
2019-06-07T00:34:17.023Z,99.90
2019-06-07T00:36:43.538Z,99.90
2019-06-07T00:39:10.640Z,99.90
2019-06-07T00:41:38.461Z,99.90
2019-06-07T00:44:05.012Z,99.90
2019-06-07T00:46:31.476Z,99.90
2019-06-07T00:48:58.304Z,99.90
2019-06-07T00:51:24.876Z,99.90
2019-06-07T00:53:51.413Z,99.90
2019-06-07T00:56:20.279Z,99.90
2019-06-07T00:58:46.487Z,99.90
2019-06-07T01:01:13.718Z,99.90
2019-06-07T01:03:41.435Z,99.90
2019-06-07T01:06:07.894Z,99.90
2019-06-07T01:08:34.385Z,99.90
2019-06-07T01:11:01.191Z,99.90
2019-06-07T01:13:28.012Z,99.90
2019-06-07T01:15:54.481Z,99.90
2019-06-07T01:18:41.216Z,99.90
2019-06-07T01:20:49.711Z,99.90
2019-06-07T01:23:54.319Z,99.90
2019-06-07T01:25:44.586Z,99.90
2019-06-07T01:28:11.302Z,99.90
2019-06-07T01:30:38.067Z,99.90
2019-06-07T01:33:04.579Z,99.90
2019-06-07T01:35:31.617Z,99.90
2019-06-07T01:37:58.442Z,99.90
2019-06-07T01:40:31.334Z,99.90
2019-06-07T01:42:53.670Z,99.90
2019-06-07T01:45:21.353Z,99.90
2019-06-07T01:47:48.093Z,99.90
2019-06-07T01:50:14.614Z,99.90
2019-06-07T01:52:41.068Z,99.90
2019-06-07T01:55:08.130Z,99.90
2019-06-07T01:57:47.590Z,99.90
2019-06-07T02:00:03.338Z,99.90
2019-06-07T02:02:31.589Z,99.90
2019-06-07T02:04:58.238Z,99.90
2019-06-07T02:07:28.045Z,99.90
2019-06-07T02:09:53.614Z,99.90
2019-06-07T02:12:28.118Z,99.90
2019-06-07T02:14:48.475Z,99.90
2019-06-07T02:17:14.934Z,99.90
2019-06-07T02:19:41.437Z,99.90
2019-06-07T02:22:08.174Z,99.90
2019-06-07T02:24:35.908Z,99.90
2019-06-07T02:27:03.299Z,99.90
2019-06-07T02:29:31.895Z,99.90
2019-06-07T02:31:58.563Z,99.90
2019-06-07T02:34:28.181Z,99.90
2019-06-07T02:36:54.055Z,99.90
2019-06-07T02:39:23.926Z,99.90
2019-06-07T02:41:49.459Z,99.90
2019-06-07T02:44:15.917Z,99.90
2019-06-07T02:46:48.888Z,99.90
2019-06-07T02:49:11.082Z,99.90
2019-06-07T02:51:41.720Z,99.90
2019-06-07T02:54:06.211Z,99.90
2019-06-07T02:56:48.870Z,99.90
2019-06-07T02:59:01.448Z,99.90
2019-06-07T03:01:31.342Z,99.90
2019-06-07T03:03:56.576Z,99.90
2019-06-07T03:06:23.298Z,99.90
2019-06-07T03:08:50.066Z,99.90
2019-06-07T03:11:16.522Z,99.90
2019-06-07T03:13:44.266Z,99.90
2019-06-07T03:16:12.691Z,99.90
2019-06-07T03:19:03.411Z,99.90
2019-06-07T03:21:31.507Z,99.90
2019-06-07T03:23:58.577Z,99.90
2019-06-07T03:26:27.437Z,99.90
2019-06-07T03:28:53.935Z,99.90
2019-06-07T03:31:20.991Z,99.90
2019-06-07T03:33:47.562Z,99.90
2019-06-07T03:36:23.849Z,99.90
2019-06-07T03:38:42.427Z,99.90
2019-06-07T03:41:08.972Z,99.90
2019-06-07T03:43:38.700Z,99.90
2019-06-07T03:46:03.814Z,99.90
2019-06-07T03:48:32.251Z,99.90
2019-06-07T03:51:04.609Z,99.90
2019-06-07T03:53:30.461Z,99.90
2019-06-07T03:55:56.014Z,99.90
2019-06-07T03:58:32.643Z,99.90
2019-06-07T04:00:51.191Z,99.90
2019-06-07T04:03:32.951Z,99.90
2019-06-07T04:05:46.882Z,99.90
2019-06-07T04:08:13.436Z,99.90
2019-06-07T04:10:53.384Z,99.90
2019-06-07T04:13:08.867Z,99.90
2019-06-07T04:15:38.294Z,99.90
2019-06-07T04:18:04.197Z,99.90
2019-06-07T04:20:32.895Z,99.90
2019-06-07T04:22:59.187Z,99.90
2019-06-07T04:25:25.987Z,99.90
2019-06-07T04:27:53.551Z,99.90
2019-06-07T04:30:37.299Z,99.90
2019-06-07T04:33:04.236Z,99.90
2019-06-07T04:35:32.362Z,99.90
2019-06-07T04:37:59.670Z,99.90
2019-06-07T04:40:26.138Z,99.90
2019-06-07T04:42:52.822Z,99.90
2019-06-07T04:45:33.462Z,99.90
2019-06-07T04:47:47.672Z,99.90
2019-06-07T04:50:14.430Z,99.90
2019-06-07T04:52:44.912Z,99.90
2019-06-07T04:55:09.552Z,99.90
2019-06-07T04:57:37.614Z,99.90
2019-06-07T05:00:33.417Z,99.90
2019-06-07T05:02:36.819Z,99.90
2019-06-07T05:05:01.471Z,99.90
2019-06-07T05:07:30.545Z,99.90
2019-06-07T05:09:56.623Z,99.90
2019-06-07T05:12:23.422Z,99.90
2019-06-07T05:14:49.910Z,99.90
2019-06-07T05:17:16.723Z,99.90
2019-06-07T05:19:44.514Z,99.90
2019-06-07T05:22:11.482Z,99.90
2019-06-07T05:24:40.791Z,99.90
2019-06-07T05:27:06.983Z,99.90
2019-06-07T05:29:36.764Z,99.90
2019-06-07T05:32:02.211Z,99.90
2019-06-07T05:34:28.689Z,99.90
2019-06-07T05:37:11.109Z,99.90
2019-06-07T05:39:23.615Z,99.90
2019-06-07T05:41:50.351Z,99.90
2019-06-07T05:44:16.915Z,99.90
2019-06-07T05:46:47.044Z,99.90
2019-06-07T05:49:12.207Z,99.90
2019-06-07T05:51:41.894Z,99.90
2019-06-07T05:54:07.506Z,99.90
2019-06-07T05:56:35.876Z,99.90
2019-06-07T05:59:02.592Z,99.90
2019-06-07T06:01:56.311Z,99.90
2019-06-07T06:03:57.935Z,99.90
2019-06-07T06:06:24.576Z,99.90
2019-06-07T06:08:51.367Z,99.90
2019-06-07T06:11:17.834Z,99.90
2019-06-07T06:14:05.648Z,99.90
2019-06-07T06:16:12.866Z,99.90
2019-06-07T06:18:40.752Z,99.90
2019-06-07T06:21:17.860Z,99.90
2019-06-07T06:23:39.595Z,99.90
2019-06-07T06:26:04.564Z,99.90
2019-06-07T06:28:31.304Z,99.90
2019-06-07T06:30:57.759Z,99.90
2019-06-07T06:33:33.366Z,99.90
2019-06-07T06:35:53.156Z,99.90
2019-06-07T06:38:19.642Z,99.90
2019-06-07T06:40:48.926Z,99.90
2019-06-07T06:43:14.569Z,99.90
2019-06-07T06:45:42.816Z,99.90
2019-06-07T06:48:10.082Z,99.90
2019-06-07T06:50:36.634Z,99.90
2019-06-07T06:53:03.109Z,99.90
2019-06-07T06:55:29.570Z,99.90
2019-06-07T06:57:56.662Z,99.90
2019-06-07T07:00:46.231Z,99.90
2019-06-07T07:03:47.682Z,99.90
2019-06-07T07:05:37.678Z,99.90
2019-06-07T07:08:04.261Z,99.90
2019-06-07T07:10:37.834Z,99.90
2019-06-07T07:13:04.640Z,99.90
2019-06-07T07:15:31.491Z,99.90
2019-06-07T07:18:07.933Z,99.90
2019-06-07T07:20:26.340Z,99.90
2019-06-07T07:22:56.437Z,99.90
2019-06-07T07:25:21.503Z,99.90
2019-06-07T07:27:52.106Z,99.90
2019-06-07T07:32:48.949Z,99.90
2019-06-07T07:35:16.239Z,99.90
2019-06-07T07:37:43.744Z,99.90
2019-06-07T07:40:55.603Z,99.90
2019-06-07T07:42:39.850Z,99.90
2019-06-07T07:45:07.112Z,99.90
2019-06-07T07:47:33.624Z,99.90
2019-06-07T07:50:00.201Z,99.90
2019-06-07T07:52:26.646Z,99.50
2019-06-07T07:54:56.628Z,98.60
2019-06-07T07:57:22.488Z,98.80
2019-06-07T08:00:06.248Z,97.50
2019-06-07T08:02:17.610Z,95.30
2019-06-07T08:05:13.732Z,92.90
2019-06-07T08:07:12.540Z,93.60
2019-06-07T08:09:39.026Z,94.00
2019-06-07T08:12:05.512Z,89.30
2019-06-07T08:14:31.984Z,89.80
2019-06-07T08:16:59.307Z,88.10
2019-06-07T08:19:26.118Z,89.80
2019-06-07T08:21:53.100Z,87.60
2019-06-07T08:24:19.746Z,82.10
2019-06-07T08:27:13.107Z,84.40
2019-06-07T08:29:14.727Z,87.50
2019-06-07T08:31:41.191Z,88.70
2019-06-07T08:34:07.663Z,90.90
2019-06-07T08:36:42.003Z,90.10
2019-06-07T08:39:07.568Z,91.00
2019-06-07T08:41:33.163Z,91.70
2019-06-07T08:44:02.644Z,90.10
2019-06-07T08:46:28.123Z,89.60
2019-06-07T08:48:57.161Z,91.30
2019-06-07T08:51:22.954Z,90.80
2019-06-07T08:54:08.465Z,90.70
2019-06-07T08:56:18.272Z,90.30
2019-06-07T08:58:45.041Z,92.10
2019-06-07T09:01:11.517Z,93.10
2019-06-07T09:03:38.278Z,93.20
2019-06-07T09:06:16.355Z,93.90
2019-06-07T09:08:33.758Z,92.30
2019-06-07T09:11:05.130Z,90.60
2019-06-07T09:13:28.596Z,90.90
2019-06-07T09:15:56.063Z,90.90
2019-06-07T09:18:41.319Z,90.80
2019-06-07T09:20:52.153Z,87.90
2019-06-07T09:23:18.687Z,90.10
2019-06-07T09:25:57.371Z,90.00
2019-06-07T09:28:19.358Z,91.30
2019-06-07T09:30:42.480Z,87.30
2019-06-07T09:33:09.486Z,86.00
2019-06-07T09:35:36.650Z,87.60
2019-06-07T09:38:11.073Z,89.20
2019-06-07T09:40:31.482Z,90.10
2019-06-07T09:43:47.313Z,86.50
2019-06-07T09:45:26.311Z,85.40
2019-06-07T09:47:52.770Z,87.90
2019-06-07T09:50:19.314Z,89.40
2019-06-07T09:52:57.805Z,89.50
2019-06-07T09:55:23.446Z,86.80
2019-06-07T09:57:42.787Z,86.90
2019-06-07T10:00:39.142Z,88.60
2019-06-07T10:02:40.483Z,90.20
2019-06-07T10:05:12.387Z,90.10
2019-06-07T10:07:35.326Z,90.70
2019-06-07T10:10:22.870Z,90.80
2019-06-07T10:12:30.166Z,90.60
2019-06-07T10:14:56.926Z,90.50
2019-06-07T10:17:23.681Z,90.80
2019-06-07T10:19:50.441Z,90.50
2019-06-07T10:22:17.027Z,91.20
2019-06-07T10:24:43.555Z,90.90
2019-06-07T10:27:10.664Z,91.70
2019-06-07T10:29:37.126Z,91.50
2019-06-07T10:32:04.520Z,90.90
2019-06-07T10:34:31.135Z,91.20
2019-06-07T10:40:07.951Z,91.00
2019-06-07T10:42:35.959Z,92.00
2019-06-07T10:45:04.468Z,92.40
2019-06-07T10:47:31.216Z,93.20
2019-06-07T10:49:58.449Z,92.80
2019-06-07T10:52:25.254Z,93.30
2019-06-07T10:54:52.046Z,92.90
2019-06-07T10:57:18.606Z,93.60
2019-06-07T10:59:45.375Z,93.10
2019-06-07T11:02:13.921Z,90.70
2019-06-07T11:04:40.543Z,90.20
2019-06-07T11:07:08.205Z,91.00
2019-06-07T11:09:35.100Z,89.10
2019-06-07T11:12:01.832Z,90.50
2019-06-07T11:14:28.275Z,90.80
2019-06-07T11:16:55.426Z,91.10
2019-06-07T11:19:22.120Z,86.80
2019-06-07T11:21:48.702Z,84.50
2019-06-07T11:24:18.364Z,85.80
2019-06-07T11:26:44.462Z,87.70
2019-06-07T11:29:11.050Z,89.70
2019-06-07T11:31:39.390Z,89.30
2019-06-07T11:34:06.343Z,88.20
2019-06-07T11:36:33.147Z,91.30
2019-06-07T11:39:00.392Z,86.90
2019-06-07T11:41:26.870Z,86.70
2019-06-07T11:43:53.718Z,86.10
2019-06-07T11:46:20.687Z,82.70
2019-06-07T11:48:47.435Z,82.00
2019-06-07T11:51:14.935Z,80.90
2019-06-07T11:53:41.516Z,79.30
2019-06-07T11:56:07.967Z,78.30
2019-06-07T11:58:34.722Z,78.20
2019-06-07T12:01:01.172Z,76.50
2019-06-07T12:03:27.637Z,76.30
2019-06-07T12:05:54.658Z,76.00
2019-06-07T12:08:21.390Z,73.00
2019-06-07T12:10:48.666Z,72.70
2019-06-07T12:13:17.318Z,75.90
2019-06-07T12:15:44.226Z,79.10
2019-06-07T12:18:11.279Z,80.70
2019-06-07T12:20:38.210Z,78.10
2019-06-07T12:23:05.010Z,77.30
2019-06-07T12:25:32.046Z,80.80
2019-06-07T12:27:59.167Z,74.90
2019-06-07T12:30:27.864Z,76.60
2019-06-07T12:32:54.585Z,79.00
2019-06-07T12:35:21.894Z,80.90
2019-06-07T12:37:49.326Z,79.90
2019-06-07T12:40:26.549Z,79.40
2019-06-07T12:42:47.244Z,76.20
2019-06-07T12:45:30.595Z,74.50
2019-06-07T12:47:42.619Z,72.70
2019-06-07T12:53:31.819Z,73.30
2019-06-07T12:56:00.282Z,73.80
2019-06-07T12:58:34.504Z,75.50
2019-06-07T13:00:59.335Z,71.60
2019-06-07T13:03:24.557Z,71.80
2019-06-07T13:05:51.602Z,71.70
2019-06-07T13:08:18.073Z,71.40
2019-06-07T13:10:44.815Z,73.10
2019-06-07T13:13:11.294Z,71.30
2019-06-07T13:26:20.515Z,71.70
2019-06-07T13:28:47.428Z,75.50
2019-06-07T13:31:13.894Z,76.60
2019-06-07T13:33:40.674Z,73.90
2019-06-07T13:36:07.238Z,75.20
2019-06-07T13:38:33.899Z,75.90
2019-06-07T13:41:00.757Z,77.80
2019-06-07T13:43:28.176Z,78.80
2019-06-07T13:45:54.795Z,78.50
2019-06-07T13:48:21.524Z,79.50
2019-06-07T13:50:48.200Z,79.50
2019-06-07T13:53:14.978Z,78.80
2019-06-07T13:55:41.828Z,75.70
2019-06-07T13:58:08.837Z,75.20
2019-06-07T14:00:35.729Z,77.50
2019-06-07T14:03:02.693Z,78.70
2019-06-07T14:05:29.399Z,77.60
2019-06-07T14:07:56.115Z,78.70
2019-06-07T14:10:23.621Z,74.10
2019-06-07T14:12:50.272Z,74.50
2019-06-07T14:15:16.758Z,75.30
2019-06-07T14:17:43.221Z,76.80
2019-06-07T14:20:10.775Z,75.90
2019-06-07T14:22:38.024Z,76.60
2019-06-07T14:25:04.680Z,77.80
2019-06-07T14:27:32.014Z,74.40
2019-06-07T14:29:58.899Z,74.70
2019-06-07T14:32:26.504Z,76.20
2019-06-07T14:34:53.229Z,75.70
2019-06-07T14:37:19.734Z,77.40
2019-06-07T14:39:46.234Z,76.30
2019-06-07T14:42:12.939Z,76.60
2019-06-07T14:44:40.810Z,76.20
2019-06-07T14:47:07.931Z,75.60
2019-06-07T14:49:34.785Z,77.40
2019-06-07T14:52:01.742Z,77.50
2019-06-07T14:54:33.485Z,78.90
2019-06-07T14:56:57.199Z,76.10
2019-06-07T14:59:23.944Z,76.20
2019-06-07T15:01:50.398Z,76.40
2019-06-07T15:04:17.720Z,77.70
2019-06-07T15:06:44.176Z,78.00
2019-06-07T15:09:11.178Z,80.20
2019-06-07T15:11:39.218Z,81.40
2019-06-07T15:14:06.398Z,78.70
2019-06-07T15:16:33.913Z,80.70
2019-06-07T15:19:00.810Z,79.70
2019-06-07T15:21:28.668Z,77.40
2019-06-07T15:23:55.594Z,80.10
2019-06-07T15:26:22.766Z,83.00
2019-06-07T15:28:49.316Z,84.10
2019-06-07T15:31:15.798Z,83.70
2019-06-07T15:33:42.795Z,83.20
2019-06-07T15:36:09.707Z,83.70
2019-06-07T15:38:37.250Z,82.10
2019-06-07T15:41:04.006Z,81.80
2019-06-07T15:43:31.154Z,83.20
2019-06-07T15:45:57.947Z,83.40
2019-06-07T15:48:24.410Z,83.40
2019-06-07T15:50:51.453Z,84.00
2019-06-07T15:53:18.265Z,83.30
2019-06-07T15:55:45.959Z,84.40
2019-06-07T15:58:12.871Z,83.90
2019-06-07T16:00:41.066Z,83.40
2019-06-07T16:03:08.621Z,85.00
2019-06-07T16:05:36.412Z,84.60
2019-06-07T16:08:03.420Z,85.90
2019-06-07T16:10:30.247Z,85.50
2019-06-07T16:13:00.728Z,86.70
2019-06-07T16:15:25.439Z,87.40
2019-06-07T16:17:52.402Z,88.90
2019-06-07T16:20:18.858Z,90.20
2019-06-07T16:22:45.323Z,90.00
2019-06-07T16:25:12.127Z,90.70
2019-06-07T16:27:40.467Z,91.60
2019-06-07T16:30:09.328Z,91.80
2019-06-07T16:32:37.479Z,91.80
2019-06-07T16:35:04.382Z,91.30
2019-06-07T16:37:31.343Z,92.10
2019-06-07T16:39:58.465Z,92.60
2019-06-07T16:42:25.045Z,92.40
2019-06-07T16:44:51.743Z,93.10
2019-06-07T16:47:18.469Z,93.40
2019-06-07T16:49:45.204Z,93.90
2019-06-07T16:52:12.043Z,94.20
2019-06-07T16:54:39.338Z,94.50
2019-06-07T16:57:06.044Z,94.80
2019-06-07T16:59:32.948Z,94.00
2019-06-07T17:01:59.855Z,94.30
2019-06-07T17:04:26.575Z,94.90
2019-06-07T17:06:53.262Z,94.70
2019-06-07T17:09:20.236Z,94.60
2019-06-07T17:11:46.703Z,94.90
2019-06-07T17:14:13.415Z,95.50
2019-06-07T17:16:40.901Z,95.50
2019-06-07T17:19:07.613Z,95.60
2019-06-07T17:21:34.548Z,95.70
2019-06-07T17:24:01.815Z,96.60
2019-06-07T17:26:28.359Z,96.50
2019-06-07T17:28:54.843Z,96.10
2019-06-07T17:31:21.410Z,96.40
2019-06-07T17:33:48.157Z,96.60
2019-06-07T17:36:14.943Z,97.40
2019-06-07T17:38:42.466Z,97.30
2019-06-07T17:41:09.150Z,97.30
2019-06-07T17:43:48.463Z,97.70
2019-06-07T17:46:04.740Z,97.90
2019-06-07T17:48:31.560Z,98.40
2019-06-07T17:50:58.276Z,98.90
2019-06-07T17:53:25.003Z,98.60
2019-06-07T17:55:52.362Z,98.90
2019-06-07T17:58:19.210Z,99.40
2019-06-07T18:00:46.858Z,99.80
2019-06-07T18:03:13.474Z,99.90
2019-06-07T18:05:40.474Z,99.90
2019-06-07T18:08:07.353Z,99.90
2019-06-07T18:10:35.577Z,99.90
2019-06-07T18:13:02.134Z,99.90
2019-06-07T18:15:35.717Z,99.90
2019-06-07T18:18:02.851Z,99.90
2019-06-07T18:20:30.238Z,99.90
2019-06-07T18:22:58.432Z,99.90
2019-06-07T18:25:25.187Z,99.90
2019-06-07T18:27:52.755Z,99.90
2019-06-07T18:30:19.637Z,99.90
2019-06-07T18:32:46.860Z,99.90
2019-06-07T18:35:14.054Z,99.90
2019-06-07T18:37:40.582Z,99.90
2019-06-07T18:40:07.430Z,99.90
2019-06-07T18:42:34.214Z,99.90
2019-06-07T18:45:00.947Z,99.90
2019-06-07T18:47:27.646Z,99.90
2019-06-07T18:49:55.358Z,99.90
2019-06-07T18:52:28.337Z,99.90
2019-06-07T18:54:55.519Z,99.90
2019-06-07T18:57:22.024Z,99.90
2019-06-07T18:59:48.491Z,99.90
2019-06-07T19:02:15.240Z,99.90
2019-06-07T19:04:41.782Z,99.90
2019-06-07T19:07:08.406Z,99.90
2019-06-07T19:09:35.292Z,99.90
2019-06-07T19:12:01.838Z,99.90
2019-06-07T19:14:37.033Z,99.90
2019-06-07T19:16:57.566Z,99.90
2019-06-07T19:19:24.418Z,99.90
2019-06-07T19:21:52.074Z,99.90
2019-06-07T19:24:18.719Z,99.90
2019-06-07T19:26:45.187Z,99.90
2019-06-07T19:29:11.996Z,99.90
2019-06-07T19:31:38.791Z,99.90
2019-06-07T19:34:05.357Z,99.90
2019-06-07T19:36:47.819Z,99.90
2019-06-07T19:39:02.006Z,99.90
2019-06-07T19:41:28.707Z,99.90
2019-06-07T19:43:56.175Z,99.90
2019-06-07T19:46:23.006Z,99.90
2019-06-07T19:48:49.475Z,99.90
2019-06-07T19:51:19.597Z,99.90
2019-06-07T19:53:44.878Z,99.90
2019-06-07T19:56:11.955Z,99.90
2019-06-07T19:58:38.753Z,99.90
2019-06-07T20:01:05.367Z,99.90
2019-06-07T20:03:32.180Z,99.90
2019-06-07T20:06:00.135Z,99.90
2019-06-07T20:08:26.812Z,99.90
2019-06-07T20:10:54.424Z,99.90
2019-06-07T20:13:21.722Z,99.90
2019-06-07T20:15:48.474Z,99.90
2019-06-07T20:18:15.784Z,99.90
2019-06-07T20:20:42.330Z,99.90
2019-06-07T20:23:09.333Z,99.90
2019-06-07T20:25:36.656Z,99.90
2019-06-07T20:28:03.434Z,99.90
2019-06-07T20:30:30.167Z,99.90
2019-06-07T20:32:57.637Z,99.90
2019-06-07T20:35:24.544Z,99.90
2019-06-07T20:37:51.018Z,99.90
2019-06-07T20:40:24.280Z,99.90
2019-06-07T20:42:47.594Z,99.90
2019-06-07T20:45:14.878Z,99.90
2019-06-07T20:47:41.857Z,99.90
2019-06-07T20:50:08.930Z,99.90
2019-06-07T20:52:36.036Z,99.90
2019-06-07T20:55:06.964Z,99.90
2019-06-07T20:57:37.726Z,99.90
2019-06-07T21:00:17.340Z,99.90
2019-06-07T21:02:41.403Z,99.90
2019-06-07T21:05:09.570Z,99.90
2019-06-07T21:07:38.747Z,99.90
2019-06-07T21:10:05.748Z,99.90
2019-06-07T21:12:32.389Z,99.90
2019-06-07T21:15:05.219Z,99.90
2019-06-07T21:17:29.187Z,99.90
2019-06-07T21:19:55.944Z,99.90
2019-06-07T21:22:22.480Z,99.90
2019-06-07T21:24:49.572Z,99.90
2019-06-07T21:27:16.879Z,99.90
2019-06-07T21:29:45.882Z,99.90
2019-06-07T21:32:12.135Z,99.90
2019-06-07T21:34:38.913Z,99.90
2019-06-07T21:37:05.883Z,99.90
2019-06-07T21:39:32.631Z,99.90
2019-06-07T21:41:59.226Z,99.90
2019-06-07T21:44:26.097Z,99.90
2019-06-07T21:46:52.776Z,99.90
2019-06-07T21:49:19.972Z,99.90
2019-06-07T21:51:46.547Z,99.90
2019-06-07T21:54:14.924Z,99.90
2019-06-07T21:56:41.872Z,99.90
2019-06-07T21:59:09.348Z,99.90
2019-06-07T22:01:36.474Z,99.90
2019-06-07T22:04:03.575Z,99.90
2019-06-07T22:06:30.370Z,99.90
2019-06-07T22:08:57.082Z,99.90
2019-06-07T22:11:23.782Z,99.90
2019-06-07T22:13:50.262Z,99.90
2019-06-07T22:16:28.423Z,99.90
2019-06-07T22:18:45.790Z,99.90
2019-06-07T22:21:12.712Z,99.90
2019-06-07T22:23:39.576Z,99.90
2019-06-07T22:26:07.107Z,99.90
2019-06-07T22:28:34.598Z,99.90
2019-06-07T22:31:01.098Z,99.90
2019-06-07T22:33:27.810Z,99.90
2019-06-07T22:35:54.555Z,99.90
2019-06-07T22:38:21.038Z,99.90
2019-06-07T22:40:47.744Z,99.90
2019-06-07T22:43:14.230Z,99.90
2019-06-07T22:45:40.846Z,99.90
2019-06-07T22:48:08.890Z,99.90
2019-06-07T22:50:36.086Z,99.90
2019-06-07T22:53:07.890Z,99.90
2019-06-07T22:55:34.699Z,99.90
2019-06-07T22:58:01.758Z,99.90
2019-06-07T23:00:29.718Z,99.90
2019-06-07T23:02:56.171Z,99.90
2019-06-07T23:05:22.894Z,99.90
2019-06-07T23:07:49.349Z,99.90
2019-06-07T23:10:17.408Z,99.90
2019-06-07T23:12:44.050Z,99.90
2019-06-07T23:15:11.493Z,99.90
2019-06-07T23:17:38.499Z,99.90
2019-06-07T23:20:05.117Z,99.90
2019-06-07T23:22:31.571Z,99.90
2019-06-07T23:24:58.286Z,99.90
2019-06-07T23:27:24.739Z,99.90
2019-06-07T23:29:51.192Z,99.90
2019-06-07T23:32:20.153Z,99.90
2019-06-07T23:34:46.250Z,99.90
2019-06-07T23:37:13.055Z,99.90
2019-06-07T23:39:39.955Z,99.90
2019-06-07T23:42:06.555Z,99.90
2019-06-07T23:44:33.080Z,99.90
2019-06-07T23:47:10.736Z,99.90
2019-06-07T23:49:28.727Z,99.90
2019-06-07T23:51:55.195Z,99.90
2019-06-07T23:54:22.198Z,99.90
2019-06-07T23:56:49.139Z,99.90
2019-06-07T23:59:16.107Z,99.90
